KBMT/BMT METAR and TAF weather

Enter ICAO airport designator
Station Type Date Time Source
KBMT METAR 2018/12/11 00:15 UTC NOAA

KBMT 110015Z AUTO 31003KT 10SM CLR 09/02 A3038 RMK AO2 T00930023


Station Type Date Time Source
KBMT Decoded METAR 2018/12/11 00:15 UTC NOAA

Station name not available
Dec 10, 2018 - 07:15 PM EST / 2018.12.11 0015 UTC
Wind: from the NW (310 degrees) at 3 MPH (3 KT):0
Visibility: 10 mile(s):0
Sky conditions: clear
Temperature: 48.7 F (9.3 C)
Dew Point: 36.1 F (2.3 C)
Relative Humidity: 61%
Pressure (altimeter): 30.38 in. Hg (1028 hPa)
ob: KBMT 110015Z AUTO 31003KT 10SM CLR 09/02 A3038 RMK AO2 T00930023
cycle: 0

Station Type Date Time Source
KBMT TAF UTC NOAA

Error!


Example: see airport list